Archival Weather

Salzburg

Salzburg, Austria (LOWS)

Report from: Friday, May 26, 2023 8:50 AM CEST
Current time: Tuesday, July 16, 2024 6:32 PM CEST

Current weather – Weather history – Daily summaries
Weather forecast

Temperature16.0°C (60.8°F)
Dew point13.0°C (55.4°F)
Winds 1 kts (0.5 m/s, 1.2 mph) Vrb
Winds variableWinds variable
Visibility6.2 mi. (10 km)
Clouds Scattered clouds 6,000 ft. (1,829 m)
Altimeter30.21 in.Hg (1023 mB)
Relative humidity82 %
Density altitude-2 ft. (-1 m)
Remarks Fully automated report
No significant changes expected in the next two hours
Flight conditions Visual Meteorological Conditions
Raw dataLOWS 260650Z AUTO VRB01KT 9999 SCT060 16/13 Q1023 NOSIG
An error has occurred. This application may no longer respond until reloaded. Reload 🗙